ハルツーム の空港の天気 - METARとTAF

ハルツーム国際空港 ( HSSS / KRT ) - スーダン ハルツーム
飛行場実況気象(Metar)
観測時間08/14 22:00 CAT (08/14 20:00 UTC)
風向・風速南西 2m/s
視程10km以上
天気現象
全天の4割程度の雲 雲底高度 1520m
気温30℃
湿度59%
気圧1008hPa
METARHSSS 142000Z 23004KT 9999 SCT050 CB 30/21 Q1008 L.TO NE
過去の天気等 Google飛行場航空写真 Wunderground天気予報

過去48時間のMETAR

飛行場予報(TAF)
発表時間: 8/14 19:00 CAT (8/14 17:00 UTC)
予報対象時間: 14日20時 CAT ~ 16日2時 CAT
風向・風速南南西 3m/s 瞬間風速 8m/s
視程10km以上
少しの雲 雲底高度 1220m
全天の4割程度の雲 雲底高度 4270m
14日21時 CAT から 確率 30% で
視程6000m
天気現象雷雨
少しの積乱雲 雲底高度 1370m
HSSS 141700Z 1418/1524 21006G16KT 9999 FEW040 SCT140
PROB30 1419/1424 6000 TSRA FEW045CB